sensor_id;sensor_type;location;lat;lon;timestamp;temperature;humidity
13245;DHT22;6689;53.400;12.486;2024-02-28T00:00:13;4.80;99.90
13245;DHT22;6689;53.400;12.486;2024-02-28T00:02:40;4.80;99.90
13245;DHT22;6689;53.400;12.486;2024-02-28T00:05:08;4.80;99.90
13245;DHT22;6689;53.400;12.486;2024-02-28T00:07:35;4.80;99.90
13245;DHT22;6689;53.400;12.486;2024-02-28T00:10:05;4.80;99.90
13245;DHT22;6689;53.400;12.486;2024-02-28T00:12:32;4.70;99.90
13245;DHT22;6689;53.400;12.486;2024-02-28T00:15:00;4.70;99.90
13245;DHT22;6689;53.400;12.486;2024-02-28T00:17:27;4.70;99.90
13245;DHT22;6689;53.400;12.486;2024-02-28T00:19:55;4.70;99.90
13245;DHT22;6689;53.400;12.486;2024-02-28T00:22:22;4.80;99.90
13245;DHT22;6689;53.400;12.486;2024-02-28T00:24:49;4.70;99.90
13245;DHT22;6689;53.400;12.486;2024-02-28T00:27:18;4.80;99.90
13245;DHT22;6689;53.400;12.486;2024-02-28T00:29:45;4.80;99.90
13245;DHT22;6689;53.400;12.486;2024-02-28T00:32:13;4.80;99.90
13245;DHT22;6689;53.400;12.486;2024-02-28T00:34:40;4.80;99.90
13245;DHT22;6689;53.400;12.486;2024-02-28T00:37:08;4.90;99.90
13245;DHT22;6689;53.400;12.486;2024-02-28T00:39:35;4.90;99.90
13245;DHT22;6689;53.400;12.486;2024-02-28T00:42:04;4.80;99.90
13245;DHT22;6689;53.400;12.486;2024-02-28T00:44:32;4.90;99.90
13245;DHT22;6689;53.400;12.486;2024-02-28T00:46:59;4.90;99.90
13245;DHT22;6689;53.400;12.486;2024-02-28T00:49:28;5.10;99.90
13245;DHT22;6689;53.400;12.486;2024-02-28T00:51:55;4.90;99.90
13245;DHT22;6689;53.400;12.486;2024-02-28T00:54:22;4.90;99.90
13245;DHT22;6689;53.400;12.486;2024-02-28T00:56:51;4.90;99.90
13245;DHT22;6689;53.400;12.486;2024-02-28T00:59:18;4.90;99.90
13245;DHT22;6689;53.400;12.486;2024-02-28T01:01:48;4.90;99.90
13245;DHT22;6689;53.400;12.486;2024-02-28T01:04:16;4.90;99.90
13245;DHT22;6689;53.400;12.486;2024-02-28T01:06:43;4.90;99.90
13245;DHT22;6689;53.400;12.486;2024-02-28T01:09:10;4.90;99.90
13245;DHT22;6689;53.400;12.486;2024-02-28T01:11:37;4.90;99.90
13245;DHT22;6689;53.400;12.486;2024-02-28T01:14:04;4.80;99.90
13245;DHT22;6689;53.400;12.486;2024-02-28T01:16:31;4.80;99.90
13245;DHT22;6689;53.400;12.486;2024-02-28T01:19:00;4.80;99.90
13245;DHT22;6689;53.400;12.486;2024-02-28T01:21:28;4.80;99.90
13245;DHT22;6689;53.400;12.486;2024-02-28T01:23:55;5.00;99.90
13245;DHT22;6689;53.400;12.486;2024-02-28T01:26:23;4.80;99.90
13245;DHT22;6689;53.400;12.486;2024-02-28T01:28:50;4.60;99.90
13245;DHT22;6689;53.400;12.486;2024-02-28T01:31:17;4.70;99.90
13245;DHT22;6689;53.400;12.486;2024-02-28T01:33:44;4.70;99.90
13245;DHT22;6689;53.400;12.486;2024-02-28T01:36:13;4.60;99.90
13245;DHT22;6689;53.400;12.486;2024-02-28T01:38:42;4.50;99.90
13245;DHT22;6689;53.400;12.486;2024-02-28T01:41:09;4.60;99.90
13245;DHT22;6689;53.400;12.486;2024-02-28T01:43:37;4.50;99.90
13245;DHT22;6689;53.400;12.486;2024-02-28T01:46:06;4.50;99.90
13245;DHT22;6689;53.400;12.486;2024-02-28T01:48:38;4.50;99.90
13245;DHT22;6689;53.400;12.486;2024-02-28T01:51:05;4.60;99.90
13245;DHT22;6689;53.400;12.486;2024-02-28T01:53:34;4.50;99.90
13245;DHT22;6689;53.400;12.486;2024-02-28T01:56:02;4.50;99.90
13245;DHT22;6689;53.400;12.486;2024-02-28T01:58:29;4.40;99.90
13245;DHT22;6689;53.400;12.486;2024-02-28T02:00:57;4.40;99.90
13245;DHT22;6689;53.400;12.486;2024-02-28T02:03:25;4.30;99.90
13245;DHT22;6689;53.400;12.486;2024-02-28T02:05:52;4.00;99.90
13245;DHT22;6689;53.400;12.486;2024-02-28T02:08:20;4.20;99.90
13245;DHT22;6689;53.400;12.486;2024-02-28T02:10:49;4.10;99.90
13245;DHT22;6689;53.400;12.486;2024-02-28T02:13:16;4.20;99.90
13245;DHT22;6689;53.400;12.486;2024-02-28T02:15:43;4.10;99.90
13245;DHT22;6689;53.400;12.486;2024-02-28T02:18:11;4.00;99.90
13245;DHT22;6689;53.400;12.486;2024-02-28T02:20:43;4.10;99.90
13245;DHT22;6689;53.400;12.486;2024-02-28T02:23:13;4.00;99.90
13245;DHT22;6689;53.400;12.486;2024-02-28T02:25:44;4.00;99.90
13245;DHT22;6689;53.400;12.486;2024-02-28T02:28:12;4.00;99.90
13245;DHT22;6689;53.400;12.486;2024-02-28T02:30:39;4.00;99.90
13245;DHT22;6689;53.400;12.486;2024-02-28T02:33:07;4.00;99.90
13245;DHT22;6689;53.400;12.486;2024-02-28T02:35:35;4.10;99.90
13245;DHT22;6689;53.400;12.486;2024-02-28T02:38:02;4.00;99.90
13245;DHT22;6689;53.400;12.486;2024-02-28T02:40:31;4.10;99.90
13245;DHT22;6689;53.400;12.486;2024-02-28T02:42:59;4.10;99.90
13245;DHT22;6689;53.400;12.486;2024-02-28T02:45:26;4.20;99.90
13245;DHT22;6689;53.400;12.486;2024-02-28T02:47:53;4.10;99.90
13245;DHT22;6689;53.400;12.486;2024-02-28T02:50:21;4.00;99.90
13245;DHT22;6689;53.400;12.486;2024-02-28T02:52:48;4.00;99.90
13245;DHT22;6689;53.400;12.486;2024-02-28T02:55:15;4.00;99.90
13245;DHT22;6689;53.400;12.486;2024-02-28T02:57:44;4.00;99.90
13245;DHT22;6689;53.400;12.486;2024-02-28T03:00:12;4.00;99.90
13245;DHT22;6689;53.400;12.486;2024-02-28T03:02:40;3.90;99.90
13245;DHT22;6689;53.400;12.486;2024-02-28T03:05:07;3.90;99.90
13245;DHT22;6689;53.400;12.486;2024-02-28T03:07:35;4.00;99.90
13245;DHT22;6689;53.400;12.486;2024-02-28T03:10:02;3.90;99.90
13245;DHT22;6689;53.400;12.486;2024-02-28T03:12:30;4.00;99.90
13245;DHT22;6689;53.400;12.486;2024-02-28T03:14:59;4.00;99.90
13245;DHT22;6689;53.400;12.486;2024-02-28T03:17:35;4.00;99.90
13245;DHT22;6689;53.400;12.486;2024-02-28T03:20:03;4.20;99.90
13245;DHT22;6689;53.400;12.486;2024-02-28T03:22:32;4.10;99.90
13245;DHT22;6689;53.400;12.486;2024-02-28T03:25:00;4.10;99.90
13245;DHT22;6689;53.400;12.486;2024-02-28T03:27:27;4.20;99.90
13245;DHT22;6689;53.400;12.486;2024-02-28T03:29:55;4.20;99.90
13245;DHT22;6689;53.400;12.486;2024-02-28T03:32:24;4.10;99.90
13245;DHT22;6689;53.400;12.486;2024-02-28T03:34:51;4.10;99.90
13245;DHT22;6689;53.400;12.486;2024-02-28T03:37:19;4.20;99.90
13245;DHT22;6689;53.400;12.486;2024-02-28T03:39:46;4.20;99.90
13245;DHT22;6689;53.400;12.486;2024-02-28T03:42:14;4.20;99.90
13245;DHT22;6689;53.400;12.486;2024-02-28T03:44:41;4.10;99.90
13245;DHT22;6689;53.400;12.486;2024-02-28T03:47:09;4.10;99.90
13245;DHT22;6689;53.400;12.486;2024-02-28T03:49:37;3.90;99.90
13245;DHT22;6689;53.400;12.486;2024-02-28T03:52:05;4.00;99.90
13245;DHT22;6689;53.400;12.486;2024-02-28T03:54:33;4.00;99.90
13245;DHT22;6689;53.400;12.486;2024-02-28T03:57:00;3.90;99.90
13245;DHT22;6689;53.400;12.486;2024-02-28T03:59:27;3.90;99.90
13245;DHT22;6689;53.400;12.486;2024-02-28T04:01:55;4.00;99.90
13245;DHT22;6689;53.400;12.486;2024-02-28T04:04:22;4.00;99.90
13245;DHT22;6689;53.400;12.486;2024-02-28T04:06:51;4.00;99.90
13245;DHT22;6689;53.400;12.486;2024-02-28T04:09:21;4.10;99.90
13245;DHT22;6689;53.400;12.486;2024-02-28T04:11:50;4.10;99.90
13245;DHT22;6689;53.400;12.486;2024-02-28T04:14:18;4.10;99.90
13245;DHT22;6689;53.400;12.486;2024-02-28T04:16:45;4.10;99.90
13245;DHT22;6689;53.400;12.486;2024-02-28T04:19:17;4.10;99.90
13245;DHT22;6689;53.400;12.486;2024-02-28T04:21:44;4.10;99.90
13245;DHT22;6689;53.400;12.486;2024-02-28T04:24:13;4.10;99.90
13245;DHT22;6689;53.400;12.486;2024-02-28T04:26:40;4.10;99.90
13245;DHT22;6689;53.400;12.486;2024-02-28T04:29:08;4.00;99.90
13245;DHT22;6689;53.400;12.486;2024-02-28T04:31:39;4.00;99.90
13245;DHT22;6689;53.400;12.486;2024-02-28T04:34:06;4.20;99.90
13245;DHT22;6689;53.400;12.486;2024-02-28T04:36:34;3.90;99.90
13245;DHT22;6689;53.400;12.486;2024-02-28T04:39:02;3.90;99.90
13245;DHT22;6689;53.400;12.486;2024-02-28T04:41:33;3.70;99.90
13245;DHT22;6689;53.400;12.486;2024-02-28T04:44:01;3.70;99.90
13245;DHT22;6689;53.400;12.486;2024-02-28T04:46:29;3.70;99.90
13245;DHT22;6689;53.400;12.486;2024-02-28T04:48:56;3.80;99.90
13245;DHT22;6689;53.400;12.486;2024-02-28T04:51:23;3.80;99.90
13245;DHT22;6689;53.400;12.486;2024-02-28T04:53:51;3.80;99.90
13245;DHT22;6689;53.400;12.486;2024-02-28T04:56:18;3.70;99.90
13245;DHT22;6689;53.400;12.486;2024-02-28T04:58:47;3.70;99.90
13245;DHT22;6689;53.400;12.486;2024-02-28T05:01:14;3.60;99.90
13245;DHT22;6689;53.400;12.486;2024-02-28T05:03:41;3.80;99.90
13245;DHT22;6689;53.400;12.486;2024-02-28T05:06:08;3.80;99.90
13245;DHT22;6689;53.400;12.486;2024-02-28T05:08:37;3.70;99.90
13245;DHT22;6689;53.400;12.486;2024-02-28T05:11:05;3.70;99.90
13245;DHT22;6689;53.400;12.486;2024-02-28T05:13:32;3.60;99.90
13245;DHT22;6689;53.400;12.486;2024-02-28T05:16:01;3.60;99.90
13245;DHT22;6689;53.400;12.486;2024-02-28T05:18:28;3.60;99.90
13245;DHT22;6689;53.400;12.486;2024-02-28T05:20:55;3.10;99.90
13245;DHT22;6689;53.400;12.486;2024-02-28T05:23:23;3.50;99.90
13245;DHT22;6689;53.400;12.486;2024-02-28T05:25:50;3.50;99.90
13245;DHT22;6689;53.400;12.486;2024-02-28T05:28:18;3.50;99.90
13245;DHT22;6689;53.400;12.486;2024-02-28T05:30:45;3.50;99.90
13245;DHT22;6689;53.400;12.486;2024-02-28T05:33:13;3.50;99.90
13245;DHT22;6689;53.400;12.486;2024-02-28T05:35:41;3.50;99.90
13245;DHT22;6689;53.400;12.486;2024-02-28T05:38:08;3.50;99.90
13245;DHT22;6689;53.400;12.486;2024-02-28T05:40:35;3.50;99.90
13245;DHT22;6689;53.400;12.486;2024-02-28T05:43:02;3.50;99.90
13245;DHT22;6689;53.400;12.486;2024-02-28T05:45:30;3.60;99.90
13245;DHT22;6689;53.400;12.486;2024-02-28T05:47:58;3.60;99.90
13245;DHT22;6689;53.400;12.486;2024-02-28T05:50:26;3.60;99.90
13245;DHT22;6689;53.400;12.486;2024-02-28T05:52:55;3.70;99.90
13245;DHT22;6689;53.400;12.486;2024-02-28T05:55:22;3.70;99.90
13245;DHT22;6689;53.400;12.486;2024-02-28T05:57:51;3.70;99.90
13245;DHT22;6689;53.400;12.486;2024-02-28T06:00:19;3.70;99.90
13245;DHT22;6689;53.400;12.486;2024-02-28T06:02:46;3.80;99.90
13245;DHT22;6689;53.400;12.486;2024-02-28T06:05:13;3.80;99.90
13245;DHT22;6689;53.400;12.486;2024-02-28T06:07:42;3.70;99.90
13245;DHT22;6689;53.400;12.486;2024-02-28T06:10:09;3.60;99.90
13245;DHT22;6689;53.400;12.486;2024-02-28T06:12:37;3.70;99.90
13245;DHT22;6689;53.400;12.486;2024-02-28T06:15:05;3.80;99.90
13245;DHT22;6689;53.400;12.486;2024-02-28T06:17:32;3.60;99.90
13245;DHT22;6689;53.400;12.486;2024-02-28T06:20:00;3.60;99.90
13245;DHT22;6689;53.400;12.486;2024-02-28T06:22:27;3.60;99.90
13245;DHT22;6689;53.400;12.486;2024-02-28T06:24:55;3.70;99.90
13245;DHT22;6689;53.400;12.486;2024-02-28T06:27:22;3.60;99.90
13245;DHT22;6689;53.400;12.486;2024-02-28T06:29:49;3.50;99.90
13245;DHT22;6689;53.400;12.486;2024-02-28T06:32:15;3.90;99.90
13245;DHT22;6689;53.400;12.486;2024-02-28T06:34:42;3.60;99.90
13245;DHT22;6689;53.400;12.486;2024-02-28T06:37:09;3.60;99.90
13245;DHT22;6689;53.400;12.486;2024-02-28T06:39:37;3.60;99.90
13245;DHT22;6689;53.400;12.486;2024-02-28T06:42:06;3.70;99.90
13245;DHT22;6689;53.400;12.486;2024-02-28T06:44:33;3.60;99.90
13245;DHT22;6689;53.400;12.486;2024-02-28T06:47:00;3.60;99.90
13245;DHT22;6689;53.400;12.486;2024-02-28T06:49:27;3.30;99.90
13245;DHT22;6689;53.400;12.486;2024-02-28T06:51:56;3.30;99.90
13245;DHT22;6689;53.400;12.486;2024-02-28T06:54:27;3.30;99.90
13245;DHT22;6689;53.400;12.486;2024-02-28T06:56:54;3.40;99.90
13245;DHT22;6689;53.400;12.486;2024-02-28T06:59:23;3.40;99.90
13245;DHT22;6689;53.400;12.486;2024-02-28T07:01:50;3.30;99.90
13245;DHT22;6689;53.400;12.486;2024-02-28T07:04:19;3.50;99.90
13245;DHT22;6689;53.400;12.486;2024-02-28T07:06:46;3.80;99.90
13245;DHT22;6689;53.400;12.486;2024-02-28T07:09:13;3.40;99.90
13245;DHT22;6689;53.400;12.486;2024-02-28T07:11:41;3.50;99.90
13245;DHT22;6689;53.400;12.486;2024-02-28T07:14:08;3.50;99.90
13245;DHT22;6689;53.400;12.486;2024-02-28T07:16:37;3.50;99.90
13245;DHT22;6689;53.400;12.486;2024-02-28T07:19:04;3.60;99.90
13245;DHT22;6689;53.400;12.486;2024-02-28T07:21:31;3.50;99.90
13245;DHT22;6689;53.400;12.486;2024-02-28T07:23:59;3.50;99.90
13245;DHT22;6689;53.400;12.486;2024-02-28T07:26:26;3.60;99.90
13245;DHT22;6689;53.400;12.486;2024-02-28T07:28:53;3.60;99.90
13245;DHT22;6689;53.400;12.486;2024-02-28T07:31:20;3.60;99.90
13245;DHT22;6689;53.400;12.486;2024-02-28T07:33:49;3.60;99.90
13245;DHT22;6689;53.400;12.486;2024-02-28T07:36:16;3.70;99.90
13245;DHT22;6689;53.400;12.486;2024-02-28T07:38:43;3.70;99.90
13245;DHT22;6689;53.400;12.486;2024-02-28T07:41:10;3.70;99.90
13245;DHT22;6689;53.400;12.486;2024-02-28T07:43:37;3.70;99.90
13245;DHT22;6689;53.400;12.486;2024-02-28T07:46:06;3.70;99.90
13245;DHT22;6689;53.400;12.486;2024-02-28T07:48:36;3.70;99.90
13245;DHT22;6689;53.400;12.486;2024-02-28T07:51:06;3.70;99.90
13245;DHT22;6689;53.400;12.486;2024-02-28T07:53:34;3.70;99.90
13245;DHT22;6689;53.400;12.486;2024-02-28T07:56:01;3.70;99.90
13245;DHT22;6689;53.400;12.486;2024-02-28T07:58:28;3.70;99.90
13245;DHT22;6689;53.400;12.486;2024-02-28T08:00:55;3.70;99.90
13245;DHT22;6689;53.400;12.486;2024-02-28T08:03:24;3.70;99.90
13245;DHT22;6689;53.400;12.486;2024-02-28T08:05:51;3.70;99.90
13245;DHT22;6689;53.400;12.486;2024-02-28T08:08:21;3.70;99.90
13245;DHT22;6689;53.400;12.486;2024-02-28T08:10:48;3.60;99.90
13245;DHT22;6689;53.400;12.486;2024-02-28T08:13:17;3.70;99.90
13245;DHT22;6689;53.400;12.486;2024-02-28T08:15:44;3.50;99.90
13245;DHT22;6689;53.400;12.486;2024-02-28T08:18:11;3.60;99.90
13245;DHT22;6689;53.400;12.486;2024-02-28T08:20:38;3.50;99.90
13245;DHT22;6689;53.400;12.486;2024-02-28T08:23:06;3.60;99.90
13245;DHT22;6689;53.400;12.486;2024-02-28T08:25:35;3.50;99.90
13245;DHT22;6689;53.400;12.486;2024-02-28T08:28:03;3.60;99.90
13245;DHT22;6689;53.400;12.486;2024-02-28T08:30:31;3.60;99.90
13245;DHT22;6689;53.400;12.486;2024-02-28T08:32:59;3.60;99.90
13245;DHT22;6689;53.400;12.486;2024-02-28T08:35:26;3.50;99.90
13245;DHT22;6689;53.400;12.486;2024-02-28T08:37:54;3.70;99.90
13245;DHT22;6689;53.400;12.486;2024-02-28T08:40:21;3.70;99.90
13245;DHT22;6689;53.400;12.486;2024-02-28T08:42:49;3.70;99.90
13245;DHT22;6689;53.400;12.486;2024-02-28T08:45:18;3.70;99.90
13245;DHT22;6689;53.400;12.486;2024-02-28T08:47:45;3.60;99.90
13245;DHT22;6689;53.400;12.486;2024-02-28T08:50:13;3.70;99.90
13245;DHT22;6689;53.400;12.486;2024-02-28T08:52:40;3.80;99.90
13245;DHT22;6689;53.400;12.486;2024-02-28T08:55:08;3.90;99.90
13245;DHT22;6689;53.400;12.486;2024-02-28T08:57:35;4.00;99.90
13245;DHT22;6689;53.400;12.486;2024-02-28T09:00:07;4.00;99.90
13245;DHT22;6689;53.400;12.486;2024-02-28T09:02:34;4.00;99.90
13245;DHT22;6689;53.400;12.486;2024-02-28T09:05:03;4.00;99.90
13245;DHT22;6689;53.400;12.486;2024-02-28T09:07:30;3.90;99.90
13245;DHT22;6689;53.400;12.486;2024-02-28T09:09:57;3.80;99.90
13245;DHT22;6689;53.400;12.486;2024-02-28T09:12:24;3.90;99.90
13245;DHT22;6689;53.400;12.486;2024-02-28T09:14:52;3.80;99.90
13245;DHT22;6689;53.400;12.486;2024-02-28T09:17:24;3.70;99.90
13245;DHT22;6689;53.400;12.486;2024-02-28T09:19:52;3.70;99.90
13245;DHT22;6689;53.400;12.486;2024-02-28T09:22:22;3.60;99.90
13245;DHT22;6689;53.400;12.486;2024-02-28T09:24:51;3.70;99.90
13245;DHT22;6689;53.400;12.486;2024-02-28T09:27:18;3.70;99.90
13245;DHT22;6689;53.400;12.486;2024-02-28T09:29:45;3.70;99.90
13245;DHT22;6689;53.400;12.486;2024-02-28T09:32:12;3.80;99.90
13245;DHT22;6689;53.400;12.486;2024-02-28T09:34:41;3.90;99.90
13245;DHT22;6689;53.400;12.486;2024-02-28T09:37:09;4.00;99.90
13245;DHT22;6689;53.400;12.486;2024-02-28T09:39:38;4.20;99.90
13245;DHT22;6689;53.400;12.486;2024-02-28T09:42:06;4.20;53.60
13245;DHT22;6689;53.400;12.486;2024-02-28T09:44:34;4.20;70.30
13245;DHT22;6689;53.400;12.486;2024-02-28T09:47:05;4.20;29.40
13245;DHT22;6689;53.400;12.486;2024-02-28T09:49:34;4.30;28.30
13245;DHT22;6689;53.400;12.486;2024-02-28T09:52:05;4.30;39.40
13245;DHT22;6689;53.400;12.486;2024-02-28T09:54:32;4.40;37.10
13245;DHT22;6689;53.400;12.486;2024-02-28T09:56:59;4.50;44.60
13245;DHT22;6689;53.400;12.486;2024-02-28T09:59:27;4.60;47.60
13245;DHT22;6689;53.400;12.486;2024-02-28T10:01:57;4.60;46.50
13245;DHT22;6689;53.400;12.486;2024-02-28T10:04:27;4.70;26.10
13245;DHT22;6689;53.400;12.486;2024-02-28T10:06:57;4.70;13.90
13245;DHT22;6689;53.400;12.486;2024-02-28T10:09:25;4.80;1.00
13245;DHT22;6689;53.400;12.486;2024-02-28T10:11:53;4.90;1.00
13245;DHT22;6689;53.400;12.486;2024-02-28T10:14:21;5.00;1.00
13245;DHT22;6689;53.400;12.486;2024-02-28T10:16:48;5.00;15.90
13245;DHT22;6689;53.400;12.486;2024-02-28T10:19:15;4.90;1.00
13245;DHT22;6689;53.400;12.486;2024-02-28T10:21:42;5.00;1.00
13245;DHT22;6689;53.400;12.486;2024-02-28T10:24:12;4.90;1.00
13245;DHT22;6689;53.400;12.486;2024-02-28T10:26:45;4.90;1.00
13245;DHT22;6689;53.400;12.486;2024-02-28T10:29:13;5.00;1.00
13245;DHT22;6689;53.400;12.486;2024-02-28T10:31:41;5.00;1.00
13245;DHT22;6689;53.400;12.486;2024-02-28T10:34:11;5.00;1.00
13245;DHT22;6689;53.400;12.486;2024-02-28T10:36:39;5.10;1.00
13245;DHT22;6689;53.400;12.486;2024-02-28T10:39:07;5.10;1.00
13245;DHT22;6689;53.400;12.486;2024-02-28T10:41:38;5.20;1.00
13245;DHT22;6689;53.400;12.486;2024-02-28T10:44:06;5.10;1.00
13245;DHT22;6689;53.400;12.486;2024-02-28T10:46:34;5.10;1.00
13245;DHT22;6689;53.400;12.486;2024-02-28T10:49:03;5.10;1.00
13245;DHT22;6689;53.400;12.486;2024-02-28T10:51:35;5.20;1.00
13245;DHT22;6689;53.400;12.486;2024-02-28T10:54:09;5.10;1.00
13245;DHT22;6689;53.400;12.486;2024-02-28T10:56:37;5.30;1.00
13245;DHT22;6689;53.400;12.486;2024-02-28T10:59:07;5.40;1.00
13245;DHT22;6689;53.400;12.486;2024-02-28T11:01:36;5.30;1.00
13245;DHT22;6689;53.400;12.486;2024-02-28T11:04:04;5.50;1.00
13245;DHT22;6689;53.400;12.486;2024-02-28T11:06:31;5.50;1.00
13245;DHT22;6689;53.400;12.486;2024-02-28T11:09:00;5.60;1.00
13245;DHT22;6689;53.400;12.486;2024-02-28T11:11:30;5.60;1.00
13245;DHT22;6689;53.400;12.486;2024-02-28T11:13:59;5.70;1.00
13245;DHT22;6689;53.400;12.486;2024-02-28T11:16:30;5.70;1.00
13245;DHT22;6689;53.400;12.486;2024-02-28T11:18:59;5.70;1.00
13245;DHT22;6689;53.400;12.486;2024-02-28T11:21:28;5.80;1.00
13245;DHT22;6689;53.400;12.486;2024-02-28T11:24:00;5.80;1.00
13245;DHT22;6689;53.400;12.486;2024-02-28T11:26:27;5.60;1.00
13245;DHT22;6689;53.400;12.486;2024-02-28T11:28:55;5.40;1.00
13245;DHT22;6689;53.400;12.486;2024-02-28T11:31:25;5.70;1.00
13245;DHT22;6689;53.400;12.486;2024-02-28T11:33:53;5.80;1.00
13245;DHT22;6689;53.400;12.486;2024-02-28T11:36:25;5.80;1.00
13245;DHT22;6689;53.400;12.486;2024-02-28T11:38:52;5.80;1.00
13245;DHT22;6689;53.400;12.486;2024-02-28T11:41:25;6.00;1.00
13245;DHT22;6689;53.400;12.486;2024-02-28T11:43:53;5.90;1.00
13245;DHT22;6689;53.400;12.486;2024-02-28T11:46:21;6.00;1.00
13245;DHT22;6689;53.400;12.486;2024-02-28T11:48:48;6.10;1.00
13245;DHT22;6689;53.400;12.486;2024-02-28T11:51:17;6.20;1.00
13245;DHT22;6689;53.400;12.486;2024-02-28T11:53:44;6.30;1.00
13245;DHT22;6689;53.400;12.486;2024-02-28T11:56:11;6.40;1.00
13245;DHT22;6689;53.400;12.486;2024-02-28T11:58:49;6.40;1.00
13245;DHT22;6689;53.400;12.486;2024-02-28T12:01:16;6.70;1.00
13245;DHT22;6689;53.400;12.486;2024-02-28T12:03:46;6.60;1.00
13245;DHT22;6689;53.400;12.486;2024-02-28T12:06:13;6.60;99.90
13245;DHT22;6689;53.400;12.486;2024-02-28T12:08:42;6.60;99.90
13245;DHT22;6689;53.400;12.486;2024-02-28T12:11:10;6.60;1.00
13245;DHT22;6689;53.400;12.486;2024-02-28T12:13:38;6.80;1.00
13245;DHT22;6689;53.400;12.486;2024-02-28T12:16:05;6.60;99.90
13245;DHT22;6689;53.400;12.486;2024-02-28T12:18:32;6.80;99.90
13245;DHT22;6689;53.400;12.486;2024-02-28T12:21:02;6.90;99.90
13245;DHT22;6689;53.400;12.486;2024-02-28T12:23:30;7.10;99.90
13245;DHT22;6689;53.400;12.486;2024-02-28T12:25:58;7.20;99.90
13245;DHT22;6689;53.400;12.486;2024-02-28T12:28:26;7.20;99.90
13245;DHT22;6689;53.400;12.486;2024-02-28T12:30:54;7.30;99.90
13245;DHT22;6689;53.400;12.486;2024-02-28T12:33:21;7.30;99.90
13245;DHT22;6689;53.400;12.486;2024-02-28T12:35:49;7.10;99.90
13245;DHT22;6689;53.400;12.486;2024-02-28T12:38:16;7.30;99.90
13245;DHT22;6689;53.400;12.486;2024-02-28T12:40:43;7.30;99.90
13245;DHT22;6689;53.400;12.486;2024-02-28T12:43:12;7.30;99.90
13245;DHT22;6689;53.400;12.486;2024-02-28T12:45:41;7.40;99.90
13245;DHT22;6689;53.400;12.486;2024-02-28T12:48:09;7.40;99.90
13245;DHT22;6689;53.400;12.486;2024-02-28T12:50:36;7.50;99.90
13245;DHT22;6689;53.400;12.486;2024-02-28T12:53:03;7.60;99.90
13245;DHT22;6689;53.400;12.486;2024-02-28T12:55:31;7.60;99.90
13245;DHT22;6689;53.400;12.486;2024-02-28T12:57:58;7.60;99.90
13245;DHT22;6689;53.400;12.486;2024-02-28T13:00:32;7.70;99.90
13245;DHT22;6689;53.400;12.486;2024-02-28T13:02:59;7.50;99.90
13245;DHT22;6689;53.400;12.486;2024-02-28T13:05:26;7.70;99.90
13245;DHT22;6689;53.400;12.486;2024-02-28T13:07:54;7.80;99.90
13245;DHT22;6689;53.400;12.486;2024-02-28T13:10:21;7.90;99.90
13245;DHT22;6689;53.400;12.486;2024-02-28T13:12:49;7.90;99.90
13245;DHT22;6689;53.400;12.486;2024-02-28T13:15:16;7.90;99.90
13245;DHT22;6689;53.400;12.486;2024-02-28T13:17:45;8.00;99.90
13245;DHT22;6689;53.400;12.486;2024-02-28T13:20:15;8.10;99.90
13245;DHT22;6689;53.400;12.486;2024-02-28T13:22:42;8.20;99.90
13245;DHT22;6689;53.400;12.486;2024-02-28T13:25:10;8.10;99.90
13245;DHT22;6689;53.400;12.486;2024-02-28T13:27:40;8.10;99.90
13245;DHT22;6689;53.400;12.486;2024-02-28T13:30:08;8.20;99.90
13245;DHT22;6689;53.400;12.486;2024-02-28T13:32:35;8.20;99.90
13245;DHT22;6689;53.400;12.486;2024-02-28T13:35:04;8.30;99.90
13245;DHT22;6689;53.400;12.486;2024-02-28T13:37:31;8.20;99.90
13245;DHT22;6689;53.400;12.486;2024-02-28T13:39:58;8.20;99.90
13245;DHT22;6689;53.400;12.486;2024-02-28T13:42:26;8.30;99.90
13245;DHT22;6689;53.400;12.486;2024-02-28T13:44:53;8.40;99.90
13245;DHT22;6689;53.400;12.486;2024-02-28T13:47:21;8.40;99.90
13245;DHT22;6689;53.400;12.486;2024-02-28T13:49:49;8.50;99.90
13245;DHT22;6689;53.400;12.486;2024-02-28T13:52:18;8.40;99.90
13245;DHT22;6689;53.400;12.486;2024-02-28T13:54:45;8.40;99.90
13245;DHT22;6689;53.400;12.486;2024-02-28T13:57:13;8.50;99.90
13245;DHT22;6689;53.400;12.486;2024-02-28T13:59:41;8.50;99.90
13245;DHT22;6689;53.400;12.486;2024-02-28T14:02:08;8.50;99.90
13245;DHT22;6689;53.400;12.486;2024-02-28T14:04:37;8.50;99.90
13245;DHT22;6689;53.400;12.486;2024-02-28T14:07:07;8.50;99.90
13245;DHT22;6689;53.400;12.486;2024-02-28T14:09:35;8.50;99.90
13245;DHT22;6689;53.400;12.486;2024-02-28T14:12:04;8.50;99.90
13245;DHT22;6689;53.400;12.486;2024-02-28T14:14:31;8.50;99.90
13245;DHT22;6689;53.400;12.486;2024-02-28T14:16:59;8.50;99.90
13245;DHT22;6689;53.400;12.486;2024-02-28T14:19:26;8.40;99.90
13245;DHT22;6689;53.400;12.486;2024-02-28T14:21:54;8.40;99.90
13245;DHT22;6689;53.400;12.486;2024-02-28T14:24:21;8.30;99.90
13245;DHT22;6689;53.400;12.486;2024-02-28T14:26:50;8.40;99.90
13245;DHT22;6689;53.400;12.486;2024-02-28T14:29:17;8.40;99.90
13245;DHT22;6689;53.400;12.486;2024-02-28T14:31:44;8.30;99.90
13245;DHT22;6689;53.400;12.486;2024-02-28T14:34:12;8.30;99.90
13245;DHT22;6689;53.400;12.486;2024-02-28T14:36:39;8.30;99.90
13245;DHT22;6689;53.400;12.486;2024-02-28T14:39:08;8.30;99.90
13245;DHT22;6689;53.400;12.486;2024-02-28T14:41:41;8.30;99.90
13245;DHT22;6689;53.400;12.486;2024-02-28T14:44:11;8.30;99.90
13245;DHT22;6689;53.400;12.486;2024-02-28T14:46:38;8.40;99.90
13245;DHT22;6689;53.400;12.486;2024-02-28T14:49:05;8.40;99.90
13245;DHT22;6689;53.400;12.486;2024-02-28T14:51:32;8.50;99.90
13245;DHT22;6689;53.400;12.486;2024-02-28T14:54:00;8.50;99.90
13245;DHT22;6689;53.400;12.486;2024-02-28T14:56:27;8.70;99.90
13245;DHT22;6689;53.400;12.486;2024-02-28T14:58:55;8.50;99.90
13245;DHT22;6689;53.400;12.486;2024-02-28T15:01:23;8.50;99.90
13245;DHT22;6689;53.400;12.486;2024-02-28T15:03:52;8.50;99.90
13245;DHT22;6689;53.400;12.486;2024-02-28T15:06:20;8.50;99.90
13245;DHT22;6689;53.400;12.486;2024-02-28T15:08:47;8.50;99.90
13245;DHT22;6689;53.400;12.486;2024-02-28T15:11:14;8.50;99.90
13245;DHT22;6689;53.400;12.486;2024-02-28T15:13:41;8.50;99.90
13245;DHT22;6689;53.400;12.486;2024-02-28T15:16:09;8.50;99.90
13245;DHT22;6689;53.400;12.486;2024-02-28T15:18:38;8.60;99.90
13245;DHT22;6689;53.400;12.486;2024-02-28T15:21:07;8.50;99.90
13245;DHT22;6689;53.400;12.486;2024-02-28T15:23:34;8.50;99.90
13245;DHT22;6689;53.400;12.486;2024-02-28T15:26:01;8.40;99.90
13245;DHT22;6689;53.400;12.486;2024-02-28T15:28:29;8.40;99.90
13245;DHT22;6689;53.400;12.486;2024-02-28T15:30:57;8.40;99.90
13245;DHT22;6689;53.400;12.486;2024-02-28T15:33:27;8.30;99.90
13245;DHT22;6689;53.400;12.486;2024-02-28T15:35:56;8.40;99.90
13245;DHT22;6689;53.400;12.486;2024-02-28T15:38:24;8.30;99.90
13245;DHT22;6689;53.400;12.486;2024-02-28T15:40:56;8.30;99.90
13245;DHT22;6689;53.400;12.486;2024-02-28T15:43:23;8.30;99.90
13245;DHT22;6689;53.400;12.486;2024-02-28T15:45:51;8.20;99.90
13245;DHT22;6689;53.400;12.486;2024-02-28T15:48:18;8.10;99.90
13245;DHT22;6689;53.400;12.486;2024-02-28T15:50:45;8.00;99.90